sensor_id;sensor_type;location;lat;lon;timestamp;pressure;altitude;pressure_sealevel;temperature;humidity
32237;BME280;18726;44.732;10.550;2022-12-19T00:01:50;102984.72;;;8.20;100.00
32237;BME280;18726;44.732;10.550;2022-12-19T00:04:55;102980.44;;;7.93;100.00
32237;BME280;18726;44.732;10.550;2022-12-19T00:08:06;102988.56;;;7.68;100.00
32237;BME280;18726;44.732;10.550;2022-12-19T00:11:20;102988.00;;;8.01;100.00
32237;BME280;18726;44.732;10.550;2022-12-19T00:14:24;102983.66;;;7.90;100.00
32237;BME280;18726;44.732;10.550;2022-12-19T00:17:28;102986.06;;;8.12;100.00
32237;BME280;18726;44.732;10.550;2022-12-19T00:20:32;103004.25;;;8.37;100.00
32237;BME280;18726;44.732;10.550;2022-12-19T00:23:36;102983.84;;;8.65;100.00
32237;BME280;18726;44.732;10.550;2022-12-19T00:26:40;102988.69;;;8.68;100.00
32237;BME280;18726;44.732;10.550;2022-12-19T00:29:44;102979.16;;;8.75;100.00
32237;BME280;18726;44.732;10.550;2022-12-19T00:32:47;102969.16;;;8.76;100.00
32237;BME280;18726;44.732;10.550;2022-12-19T00:36:03;102969.38;;;8.90;100.00
32237;BME280;18726;44.732;10.550;2022-12-19T00:39:09;102970.91;;;9.01;100.00
32237;BME280;18726;44.732;10.550;2022-12-19T00:42:13;102964.06;;;8.64;100.00
32237;BME280;18726;44.732;10.550;2022-12-19T00:45:18;102970.38;;;8.14;100.00
32237;BME280;18726;44.732;10.550;2022-12-19T00:48:22;102973.28;;;8.58;100.00
32237;BME280;18726;44.732;10.550;2022-12-19T00:51:32;102978.75;;;8.28;100.00
32237;BME280;18726;44.732;10.550;2022-12-19T00:54:36;102984.75;;;7.64;100.00
32237;BME280;18726;44.732;10.550;2022-12-19T00:57:40;102975.28;;;7.97;100.00
32237;BME280;18726;44.732;10.550;2022-12-19T01:00:43;102977.19;;;8.06;100.00
32237;BME280;18726;44.732;10.550;2022-12-19T01:03:47;102978.78;;;8.12;100.00
32237;BME280;18726;44.732;10.550;2022-12-19T01:06:51;102975.56;;;8.05;100.00
32237;BME280;18726;44.732;10.550;2022-12-19T01:09:55;102979.03;;;8.31;100.00
32237;BME280;18726;44.732;10.550;2022-12-19T01:12:59;102978.72;;;8.53;100.00
32237;BME280;18726;44.732;10.550;2022-12-19T01:16:04;102984.50;;;7.91;100.00
32237;BME280;18726;44.732;10.550;2022-12-19T01:19:08;102988.78;;;7.51;100.00
32237;BME280;18726;44.732;10.550;2022-12-19T01:22:12;102982.88;;;7.79;100.00
32237;BME280;18726;44.732;10.550;2022-12-19T01:25:16;102978.53;;;7.89;100.00
32237;BME280;18726;44.732;10.550;2022-12-19T01:28:21;102977.44;;;7.90;100.00
32237;BME280;18726;44.732;10.550;2022-12-19T01:31:25;102979.84;;;8.22;100.00
32237;BME280;18726;44.732;10.550;2022-12-19T01:34:29;102978.44;;;8.55;100.00
32237;BME280;18726;44.732;10.550;2022-12-19T01:37:34;102979.16;;;8.80;100.00
32237;BME280;18726;44.732;10.550;2022-12-19T01:40:38;102981.34;;;8.73;100.00
32237;BME280;18726;44.732;10.550;2022-12-19T01:47:03;102980.69;;;7.92;100.00
32237;BME280;18726;44.732;10.550;2022-12-19T01:50:13;102968.78;;;7.98;100.00
32237;BME280;18726;44.732;10.550;2022-12-19T01:53:18;102979.34;;;7.43;100.00
32237;BME280;18726;44.732;10.550;2022-12-19T01:56:27;102978.28;;;7.70;100.00
32237;BME280;18726;44.732;10.550;2022-12-19T01:59:40;102979.88;;;7.91;100.00
32237;BME280;18726;44.732;10.550;2022-12-19T02:02:54;102970.09;;;8.26;100.00
32237;BME280;18726;44.732;10.550;2022-12-19T02:06:01;102974.44;;;8.22;100.00
32237;BME280;18726;44.732;10.550;2022-12-19T02:09:07;102984.22;;;7.82;100.00
32237;BME280;18726;44.732;10.550;2022-12-19T02:12:12;102982.06;;;7.99;100.00
32237;BME280;18726;44.732;10.550;2022-12-19T02:15:17;102977.47;;;7.79;100.00
32237;BME280;18726;44.732;10.550;2022-12-19T02:18:47;102966.03;;;8.13;100.00
32237;BME280;18726;44.732;10.550;2022-12-19T02:22:04;102988.25;;;8.35;100.00
32237;BME280;18726;44.732;10.550;2022-12-19T02:31:32;102979.84;;;7.35;100.00
32237;BME280;18726;44.732;10.550;2022-12-19T02:44:51;102963.84;;;8.45;100.00
32237;BME280;18726;44.732;10.550;2022-12-19T02:48:00;102979.78;;;8.62;100.00
32237;BME280;18726;44.732;10.550;2022-12-19T02:51:04;102975.94;;;8.73;100.00
32237;BME280;18726;44.732;10.550;2022-12-19T02:54:09;102973.22;;;8.68;100.00
32237;BME280;18726;44.732;10.550;2022-12-19T03:00:20;102964.72;;;7.34;100.00
32237;BME280;18726;44.732;10.550;2022-12-19T03:03:54;102968.91;;;6.80;100.00
32237;BME280;18726;44.732;10.550;2022-12-19T03:10:36;102961.38;;;6.97;100.00
32237;BME280;18726;44.732;10.550;2022-12-19T03:14:13;102964.09;;;6.34;100.00
32237;BME280;18726;44.732;10.550;2022-12-19T03:17:18;102960.34;;;7.13;100.00
32237;BME280;18726;44.732;10.550;2022-12-19T03:20:44;102960.69;;;6.54;100.00
32237;BME280;18726;44.732;10.550;2022-12-19T03:23:52;102960.09;;;6.47;100.00
32237;BME280;18726;44.732;10.550;2022-12-19T03:27:01;102944.41;;;6.34;100.00
32237;BME280;18726;44.732;10.550;2022-12-19T03:30:12;102940.78;;;6.18;100.00
32237;BME280;18726;44.732;10.550;2022-12-19T03:33:17;102936.94;;;6.09;100.00
32237;BME280;18726;44.732;10.550;2022-12-19T03:36:36;102933.19;;;6.10;100.00
32237;BME280;18726;44.732;10.550;2022-12-19T03:39:44;102932.31;;;6.47;100.00
32237;BME280;18726;44.732;10.550;2022-12-19T03:42:51;102928.44;;;7.05;100.00
32237;BME280;18726;44.732;10.550;2022-12-19T03:46:25;102934.16;;;8.00;100.00
32237;BME280;18726;44.732;10.550;2022-12-19T03:49:29;102934.44;;;7.83;100.00
32237;BME280;18726;44.732;10.550;2022-12-19T03:52:47;102927.91;;;7.08;100.00
32237;BME280;18726;44.732;10.550;2022-12-19T03:56:01;102916.34;;;7.48;100.00
32237;BME280;18726;44.732;10.550;2022-12-19T03:59:33;102919.84;;;7.54;100.00
32237;BME280;18726;44.732;10.550;2022-12-19T04:02:43;102921.47;;;7.60;100.00
32237;BME280;18726;44.732;10.550;2022-12-19T04:05:49;102922.56;;;7.69;100.00
32237;BME280;18726;44.732;10.550;2022-12-19T04:08:53;102916.59;;;7.52;100.00
32237;BME280;18726;44.732;10.550;2022-12-19T04:12:01;102925.25;;;7.54;100.00
32237;BME280;18726;44.732;10.550;2022-12-19T04:15:08;102926.84;;;7.80;100.00
32237;BME280;18726;44.732;10.550;2022-12-19T04:18:12;102935.50;;;8.07;100.00
32237;BME280;18726;44.732;10.550;2022-12-19T04:21:21;102943.03;;;8.10;100.00
32237;BME280;18726;44.732;10.550;2022-12-19T04:24:32;102934.44;;;7.73;100.00
32237;BME280;18726;44.732;10.550;2022-12-19T04:27:39;102935.53;;;7.77;100.00
32237;BME280;18726;44.732;10.550;2022-12-19T04:30:44;102946.56;;;8.11;100.00
32237;BME280;18726;44.732;10.550;2022-12-19T04:33:49;102940.31;;;8.36;100.00
32237;BME280;18726;44.732;10.550;2022-12-19T04:36:53;102942.22;;;8.35;100.00
32237;BME280;18726;44.732;10.550;2022-12-19T04:39:57;102934.06;;;8.30;100.00
32237;BME280;18726;44.732;10.550;2022-12-19T04:43:00;102944.09;;;8.30;100.00
32237;BME280;18726;44.732;10.550;2022-12-19T04:46:04;102949.88;;;7.42;100.00
32237;BME280;18726;44.732;10.550;2022-12-19T04:49:08;102942.00;;;7.30;100.00
32237;BME280;18726;44.732;10.550;2022-12-19T04:52:12;102942.00;;;7.81;100.00
32237;BME280;18726;44.732;10.550;2022-12-19T04:55:16;102931.66;;;8.19;100.00
32237;BME280;18726;44.732;10.550;2022-12-19T04:58:20;102938.19;;;8.07;100.00
32237;BME280;18726;44.732;10.550;2022-12-19T05:01:24;102934.38;;;8.13;100.00
32237;BME280;18726;44.732;10.550;2022-12-19T05:04:28;102940.94;;;7.72;100.00
32237;BME280;18726;44.732;10.550;2022-12-19T05:07:31;102947.72;;;7.74;100.00
32237;BME280;18726;44.732;10.550;2022-12-19T05:10:36;102952.56;;;7.93;100.00
32237;BME280;18726;44.732;10.550;2022-12-19T05:13:40;102946.91;;;7.79;100.00
32237;BME280;18726;44.732;10.550;2022-12-19T05:16:44;102939.03;;;7.93;100.00
32237;BME280;18726;44.732;10.550;2022-12-19T05:19:47;102949.31;;;7.45;100.00
32237;BME280;18726;44.732;10.550;2022-12-19T05:22:51;102951.75;;;7.87;100.00
32237;BME280;18726;44.732;10.550;2022-12-19T05:25:59;102948.50;;;8.00;100.00
32237;BME280;18726;44.732;10.550;2022-12-19T05:29:03;102950.06;;;8.17;100.00
32237;BME280;18726;44.732;10.550;2022-12-19T05:32:06;102950.84;;;8.37;100.00
32237;BME280;18726;44.732;10.550;2022-12-19T05:35:10;102939.78;;;8.24;100.00
32237;BME280;18726;44.732;10.550;2022-12-19T05:38:13;102935.38;;;8.58;100.00
32237;BME280;18726;44.732;10.550;2022-12-19T05:41:18;102938.81;;;8.74;100.00
32237;BME280;18726;44.732;10.550;2022-12-19T05:44:22;102937.16;;;7.78;100.00
32237;BME280;18726;44.732;10.550;2022-12-19T05:47:26;102947.44;;;7.51;100.00
32237;BME280;18726;44.732;10.550;2022-12-19T05:50:30;102939.28;;;7.15;100.00
32237;BME280;18726;44.732;10.550;2022-12-19T05:53:45;102953.84;;;7.09;100.00
32237;BME280;18726;44.732;10.550;2022-12-19T05:56:49;102942.56;;;7.78;100.00
32237;BME280;18726;44.732;10.550;2022-12-19T05:59:52;102931.72;;;7.88;100.00
32237;BME280;18726;44.732;10.550;2022-12-19T06:02:58;102938.72;;;8.09;100.00
32237;BME280;18726;44.732;10.550;2022-12-19T06:06:04;102938.13;;;8.38;100.00
32237;BME280;18726;44.732;10.550;2022-12-19T06:09:09;102952.72;;;8.52;100.00
32237;BME280;18726;44.732;10.550;2022-12-19T06:12:12;102942.44;;;8.39;100.00
32237;BME280;18726;44.732;10.550;2022-12-19T06:15:16;102945.72;;;8.31;100.00
32237;BME280;18726;44.732;10.550;2022-12-19T06:18:20;102954.91;;;8.40;100.00
32237;BME280;18726;44.732;10.550;2022-12-19T06:21:24;102955.44;;;8.52;100.00
32237;BME280;18726;44.732;10.550;2022-12-19T06:24:28;102951.31;;;8.65;100.00
32237;BME280;18726;44.732;10.550;2022-12-19T06:27:32;102955.84;;;8.79;100.00
32237;BME280;18726;44.732;10.550;2022-12-19T06:30:36;102961.53;;;8.83;100.00
32237;BME280;18726;44.732;10.550;2022-12-19T06:33:40;102968.59;;;8.74;100.00
32237;BME280;18726;44.732;10.550;2022-12-19T06:36:44;102972.97;;;8.70;100.00
32237;BME280;18726;44.732;10.550;2022-12-19T06:39:49;102972.41;;;8.68;100.00
32237;BME280;18726;44.732;10.550;2022-12-19T06:42:53;102974.31;;;8.72;100.00
32237;BME280;18726;44.732;10.550;2022-12-19T06:45:56;102973.50;;;8.72;100.00
32237;BME280;18726;44.732;10.550;2022-12-19T06:49:02;102973.81;;;8.60;100.00
32237;BME280;18726;44.732;10.550;2022-12-19T06:52:06;102975.41;;;8.66;100.00
32237;BME280;18726;44.732;10.550;2022-12-19T06:55:11;102969.16;;;8.76;100.00
32237;BME280;18726;44.732;10.550;2022-12-19T06:58:15;102973.59;;;8.31;100.00
32237;BME280;18726;44.732;10.550;2022-12-19T07:01:24;102962.19;;;8.60;100.00
32237;BME280;18726;44.732;10.550;2022-12-19T07:04:45;102962.41;;;8.68;100.00
32237;BME280;18726;44.732;10.550;2022-12-19T07:07:51;102968.88;;;8.77;100.00
32237;BME280;18726;44.732;10.550;2022-12-19T07:10:56;102966.84;;;8.98;100.00
32237;BME280;18726;44.732;10.550;2022-12-19T07:14:00;102960.63;;;8.98;100.00
32237;BME280;18726;44.732;10.550;2022-12-19T07:17:05;102968.28;;;8.86;100.00
32237;BME280;18726;44.732;10.550;2022-12-19T07:20:10;102967.66;;;8.99;100.00
32237;BME280;18726;44.732;10.550;2022-12-19T07:23:18;102969.56;;;9.03;100.00
32237;BME280;18726;44.732;10.550;2022-12-19T07:26:23;102955.22;;;8.98;100.00
32237;BME280;18726;44.732;10.550;2022-12-19T07:29:27;102967.94;;;9.02;100.00
32237;BME280;18726;44.732;10.550;2022-12-19T07:32:31;102970.00;;;9.21;100.00
32237;BME280;18726;44.732;10.550;2022-12-19T07:35:34;102974.13;;;9.08;100.00
32237;BME280;18726;44.732;10.550;2022-12-19T07:38:39;102976.31;;;9.06;100.00
32237;BME280;18726;44.732;10.550;2022-12-19T07:41:47;102983.63;;;9.10;100.00
32237;BME280;18726;44.732;10.550;2022-12-19T07:44:57;102982.25;;;9.13;100.00
32237;BME280;18726;44.732;10.550;2022-12-19T07:48:02;102991.50;;;9.07;100.00
32237;BME280;18726;44.732;10.550;2022-12-19T07:51:06;102985.38;;;8.86;100.00
32237;BME280;18726;44.732;10.550;2022-12-19T07:54:11;102991.34;;;8.83;100.00
32237;BME280;18726;44.732;10.550;2022-12-19T07:57:15;102991.09;;;8.69;100.00
32237;BME280;18726;44.732;10.550;2022-12-19T08:00:20;102996.59;;;8.59;100.00
32237;BME280;18726;44.732;10.550;2022-12-19T08:03:24;102991.63;;;8.76;100.00
32237;BME280;18726;44.732;10.550;2022-12-19T08:06:27;102978.91;;;8.72;100.00
32237;BME280;18726;44.732;10.550;2022-12-19T08:09:32;102985.13;;;8.77;100.00
32237;BME280;18726;44.732;10.550;2022-12-19T08:12:36;102999.38;;;9.03;100.00
32237;BME280;18726;44.732;10.550;2022-12-19T08:15:39;102994.25;;;8.97;100.00
32237;BME280;18726;44.732;10.550;2022-12-19T08:18:45;102999.56;;;9.22;100.00
32237;BME280;18726;44.732;10.550;2022-12-19T08:21:50;103001.81;;;9.00;100.00
32237;BME280;18726;44.732;10.550;2022-12-19T08:24:53;103017.44;;;8.59;100.00
32237;BME280;18726;44.732;10.550;2022-12-19T08:27:57;103013.34;;;8.66;100.00
32237;BME280;18726;44.732;10.550;2022-12-19T08:31:16;103009.47;;;8.88;100.00
32237;BME280;18726;44.732;10.550;2022-12-19T08:34:20;103020.44;;;8.57;100.00
32237;BME280;18726;44.732;10.550;2022-12-19T08:37:26;103016.63;;;8.58;100.00
32237;BME280;18726;44.732;10.550;2022-12-19T08:40:29;103021.53;;;8.51;100.00
32237;BME280;18726;44.732;10.550;2022-12-19T08:43:33;103013.94;;;8.43;100.00
32237;BME280;18726;44.732;10.550;2022-12-19T08:46:39;103012.84;;;8.49;100.00
32237;BME280;18726;44.732;10.550;2022-12-19T08:49:43;103007.16;;;8.45;100.00
32237;BME280;18726;44.732;10.550;2022-12-19T08:52:47;103012.31;;;8.42;100.00
32237;BME280;18726;44.732;10.550;2022-12-19T08:56:05;103012.31;;;8.52;100.00
32237;BME280;18726;44.732;10.550;2022-12-19T08:59:10;103009.84;;;8.61;100.00
32237;BME280;18726;44.732;10.550;2022-12-19T09:02:13;103010.41;;;8.58;100.00
32237;BME280;18726;44.732;10.550;2022-12-19T09:05:18;103003.56;;;8.75;100.00
32237;BME280;18726;44.732;10.550;2022-12-19T09:08:22;103008.16;;;8.80;100.00
32237;BME280;18726;44.732;10.550;2022-12-19T09:11:28;103012.41;;;8.96;100.00
32237;BME280;18726;44.732;10.550;2022-12-19T09:14:34;103007.78;;;8.97;100.00
32237;BME280;18726;44.732;10.550;2022-12-19T09:17:38;103013.72;;;9.04;100.00
32237;BME280;18726;44.732;10.550;2022-12-19T09:20:42;103016.91;;;9.21;100.00
32237;BME280;18726;44.732;10.550;2022-12-19T09:23:48;103007.06;;;9.35;100.00
32237;BME280;18726;44.732;10.550;2022-12-19T09:26:52;103003.75;;;9.43;100.00
32237;BME280;18726;44.732;10.550;2022-12-19T09:29:56;103007.25;;;9.49;100.00
32237;BME280;18726;44.732;10.550;2022-12-19T09:33:00;102998.06;;;9.45;100.00
32237;BME280;18726;44.732;10.550;2022-12-19T09:36:05;103002.09;;;9.47;100.00
32237;BME280;18726;44.732;10.550;2022-12-19T09:39:12;103007.63;;;9.27;100.00
32237;BME280;18726;44.732;10.550;2022-12-19T09:43:14;103007.09;;;9.25;100.00
32237;BME280;18726;44.732;10.550;2022-12-19T09:46:18;103009.81;;;9.25;100.00
32237;BME280;18726;44.732;10.550;2022-12-19T09:49:28;103020.25;;;8.98;100.00
32237;BME280;18726;44.732;10.550;2022-12-19T09:52:38;103010.50;;;9.02;100.00
32237;BME280;18726;44.732;10.550;2022-12-19T09:55:45;103014.53;;;9.09;100.00
32237;BME280;18726;44.732;10.550;2022-12-19T09:58:57;103007.16;;;9.20;100.00
32237;BME280;18726;44.732;10.550;2022-12-19T10:08:50;103006.00;;;9.31;100.00
32237;BME280;18726;44.732;10.550;2022-12-19T10:22:03;103002.72;;;9.34;100.00
32237;BME280;18726;44.732;10.550;2022-12-19T10:34:56;102987.44;;;9.48;100.00
32237;BME280;18726;44.732;10.550;2022-12-19T10:41:43;102980.41;;;9.47;100.00
32237;BME280;18726;44.732;10.550;2022-12-19T10:44:49;102975.44;;;9.55;100.00
32237;BME280;18726;44.732;10.550;2022-12-19T10:47:56;102970.53;;;9.62;100.00
32237;BME280;18726;44.732;10.550;2022-12-19T10:51:00;102974.34;;;9.56;100.00
32237;BME280;18726;44.732;10.550;2022-12-19T10:54:07;102965.66;;;9.59;100.00
32237;BME280;18726;44.732;10.550;2022-12-19T11:00:24;102954.34;;;9.52;100.00
32237;BME280;18726;44.732;10.550;2022-12-19T11:03:28;102960.25;;;9.54;100.00
32237;BME280;18726;44.732;10.550;2022-12-19T11:06:44;102954.72;;;9.69;100.00
32237;BME280;18726;44.732;10.550;2022-12-19T11:09:49;102946.63;;;9.64;100.00
32237;BME280;18726;44.732;10.550;2022-12-19T11:12:53;102943.38;;;9.62;100.00
32237;BME280;18726;44.732;10.550;2022-12-19T11:15:59;102944.97;;;9.68;100.00
32237;BME280;18726;44.732;10.550;2022-12-19T11:19:18;102945.28;;;9.61;100.00
32237;BME280;18726;44.732;10.550;2022-12-19T11:22:25;102946.06;;;9.67;100.00
32237;BME280;18726;44.732;10.550;2022-12-19T11:25:40;102933.91;;;9.88;100.00
32237;BME280;18726;44.732;10.550;2022-12-19T11:28:44;102930.63;;;9.91;100.00
32237;BME280;18726;44.732;10.550;2022-12-19T11:31:52;102921.97;;;9.89;100.00
32237;BME280;18726;44.732;10.550;2022-12-19T11:35:03;102921.47;;;9.82;100.00
32237;BME280;18726;44.732;10.550;2022-12-19T11:38:11;102930.09;;;9.60;100.00
32237;BME280;18726;44.732;10.550;2022-12-19T11:41:28;102930.66;;;9.57;100.00
32237;BME280;18726;44.732;10.550;2022-12-19T11:44:40;102922.41;;;9.72;100.00
32237;BME280;18726;44.732;10.550;2022-12-19T11:48:06;102916.06;;;9.82;100.00
32237;BME280;18726;44.732;10.550;2022-12-19T11:54:59;102912.94;;;9.70;100.00
32237;BME280;18726;44.732;10.550;2022-12-19T11:58:10;102910.75;;;9.72;100.00
32237;BME280;18726;44.732;10.550;2022-12-19T12:11:53;102893.25;;;9.83;100.00
32237;BME280;18726;44.732;10.550;2022-12-19T12:18:43;102880.47;;;9.83;100.00
32237;BME280;18726;44.732;10.550;2022-12-19T12:21:57;102890.53;;;9.83;100.00
32237;BME280;18726;44.732;10.550;2022-12-19T12:28:52;102886.72;;;9.84;100.00
32237;BME280;18726;44.732;10.550;2022-12-19T12:35:37;102874.63;;;10.00;100.00
32237;BME280;18726;44.732;10.550;2022-12-19T12:39:03;102863.25;;;9.98;100.00
32237;BME280;18726;44.732;10.550;2022-12-19T12:45:53;102862.09;;;10.04;100.00
32237;BME280;18726;44.732;10.550;2022-12-19T12:49:02;102864.50;;;10.06;100.00
32237;BME280;18726;44.732;10.550;2022-12-19T12:52:09;102867.81;;;10.03;100.00
32237;BME280;18726;44.732;10.550;2022-12-19T12:59:02;102854.22;;;10.03;100.00
32237;BME280;18726;44.732;10.550;2022-12-19T13:02:13;102859.38;;;10.04;100.00
32237;BME280;18726;44.732;10.550;2022-12-19T13:05:33;102852.84;;;10.05;100.00
32237;BME280;18726;44.732;10.550;2022-12-19T13:08:44;102842.84;;;10.01;100.00
32237;BME280;18726;44.732;10.550;2022-12-19T13:18:32;102850.47;;;9.99;100.00
32237;BME280;18726;44.732;10.550;2022-12-19T13:28:38;102836.13;;;10.17;100.00
32237;BME280;18726;44.732;10.550;2022-12-19T13:32:12;102837.00;;;10.12;100.00
32237;BME280;18726;44.732;10.550;2022-12-19T13:38:22;102839.28;;;10.05;100.00
32237;BME280;18726;44.732;10.550;2022-12-19T13:41:30;102828.41;;;10.05;100.00
32237;BME280;18726;44.732;10.550;2022-12-19T13:45:11;102826.78;;;10.04;100.00
32237;BME280;18726;44.732;10.550;2022-12-19T13:48:33;102828.41;;;10.05;100.00
32237;BME280;18726;44.732;10.550;2022-12-19T13:51:45;102832.06;;;10.14;100.00
32237;BME280;18726;44.732;10.550;2022-12-19T13:54:54;102836.94;;;10.18;100.00
32237;BME280;18726;44.732;10.550;2022-12-19T13:58:03;102834.22;;;10.18;100.00
32237;BME280;18726;44.732;10.550;2022-12-19T14:01:14;102847.78;;;10.18;100.00
32237;BME280;18726;44.732;10.550;2022-12-19T14:04:27;102840.19;;;10.20;100.00
32237;BME280;18726;44.732;10.550;2022-12-19T14:07:40;102841.81;;;10.21;100.00
32237;BME280;18726;44.732;10.550;2022-12-19T14:10:46;102840.31;;;10.09;100.00
32237;BME280;18726;44.732;10.550;2022-12-19T14:13:58;102833.97;;;10.19;100.00
32237;BME280;18726;44.732;10.550;2022-12-19T14:17:22;102846.09;;;10.27;100.00
32237;BME280;18726;44.732;10.550;2022-12-19T14:20:27;102845.81;;;10.28;100.00
32237;BME280;18726;44.732;10.550;2022-12-19T14:23:31;102840.06;;;10.30;100.00
32237;BME280;18726;44.732;10.550;2022-12-19T14:26:36;102835.81;;;10.24;100.00
32237;BME280;18726;44.732;10.550;2022-12-19T14:29:47;102840.75;;;10.16;100.00
32237;BME280;18726;44.732;10.550;2022-12-19T14:33:02;102836.50;;;10.10;100.00
32237;BME280;18726;44.732;10.550;2022-12-19T14:36:07;102824.81;;;10.10;100.00
32237;BME280;18726;44.732;10.550;2022-12-19T14:39:15;102825.53;;;10.15;100.00
32237;BME280;18726;44.732;10.550;2022-12-19T14:42:20;102833.13;;;10.19;100.00
32237;BME280;18726;44.732;10.550;2022-12-19T14:45:43;102824.44;;;10.16;100.00
32237;BME280;18726;44.732;10.550;2022-12-19T14:51:56;102829.03;;;9.97;100.00
32237;BME280;18726;44.732;10.550;2022-12-19T14:55:14;102827.88;;;10.03;100.00
32237;BME280;18726;44.732;10.550;2022-12-19T14:58:29;102831.75;;;9.97;100.00
32237;BME280;18726;44.732;10.550;2022-12-19T15:01:50;102837.19;;;9.97;100.00
32237;BME280;18726;44.732;10.550;2022-12-19T15:05:01;102841.03;;;9.91;100.00
32237;BME280;18726;44.732;10.550;2022-12-19T15:08:09;102833.47;;;9.88;100.00
32237;BME280;18726;44.732;10.550;2022-12-19T15:11:34;102833.59;;;10.02;100.00
32237;BME280;18726;44.732;10.550;2022-12-19T15:15:08;102832.13;;;9.86;100.00
32237;BME280;18726;44.732;10.550;2022-12-19T15:21:34;102831.84;;;9.87;100.00
32237;BME280;18726;44.732;10.550;2022-12-19T15:24:37;102823.00;;;9.81;100.00
32237;BME280;18726;44.732;10.550;2022-12-19T15:27:43;102828.69;;;9.80;100.00
32237;BME280;18726;44.732;10.550;2022-12-19T15:30:59;102819.03;;;9.69;100.00
32237;BME280;18726;44.732;10.550;2022-12-19T15:34:27;102819.53;;;9.18;100.00
32237;BME280;18726;44.732;10.550;2022-12-19T15:37:31;102820.16;;;9.05;100.00
32237;BME280;18726;44.732;10.550;2022-12-19T15:40:39;102810.38;;;9.09;100.00
32237;BME280;18726;44.732;10.550;2022-12-19T15:43:45;102803.59;;;9.11;100.00
32237;BME280;18726;44.732;10.550;2022-12-19T15:46:49;102811.25;;;9.33;100.00
32237;BME280;18726;44.732;10.550;2022-12-19T15:49:53;102810.84;;;9.21;100.00
32237;BME280;18726;44.732;10.550;2022-12-19T15:52:58;102805.53;;;9.06;100.00
32237;BME280;18726;44.732;10.550;2022-12-19T15:56:03;102807.31;;;9.21;100.00
32237;BME280;18726;44.732;10.550;2022-12-19T15:59:24;102799.50;;;9.43;100.00
32237;BME280;18726;44.732;10.550;2022-12-19T16:02:30;102800.25;;;9.48;100.00
32237;BME280;18726;44.732;10.550;2022-12-19T16:05:33;102799.63;;;9.28;100.00
32237;BME280;18726;44.732;10.550;2022-12-19T16:08:37;102800.84;;;9.17;100.00
32237;BME280;18726;44.732;10.550;2022-12-19T16:11:40;102814.41;;;8.77;100.00
32237;BME280;18726;44.732;10.550;2022-12-19T16:14:48;102807.91;;;8.78;100.00
32237;BME280;18726;44.732;10.550;2022-12-19T16:17:56;102804.78;;;8.61;100.00
32237;BME280;18726;44.732;10.550;2022-12-19T16:21:01;102809.28;;;8.22;100.00
32237;BME280;18726;44.732;10.550;2022-12-19T16:24:04;102809.97;;;8.53;100.00
32237;BME280;18726;44.732;10.550;2022-12-19T16:27:09;102809.00;;;8.77;100.00
32237;BME280;18726;44.732;10.550;2022-12-19T16:30:22;102799.16;;;8.92;100.00
32237;BME280;18726;44.732;10.550;2022-12-19T16:33:27;102802.28;;;9.04;100.00
32237;BME280;18726;44.732;10.550;2022-12-19T16:36:32;102807.81;;;8.94;100.00
32237;BME280;18726;44.732;10.550;2022-12-19T16:39:36;102805.69;;;8.86;100.00
32237;BME280;18726;44.732;10.550;2022-12-19T16:42:40;102799.16;;;8.48;100.00
32237;BME280;18726;44.732;10.550;2022-12-19T16:45:44;102799.84;;;8.68;100.00
32237;BME280;18726;44.732;10.550;2022-12-19T16:48:49;102802.69;;;8.43;100.00
32237;BME280;18726;44.732;10.550;2022-12-19T16:51:53;102805.88;;;8.01;100.00
32237;BME280;18726;44.732;10.550;2022-12-19T16:54:57;102801.28;;;7.91;100.00
32237;BME280;18726;44.732;10.550;2022-12-19T16:58:01;102795.34;;;7.94;100.00
32237;BME280;18726;44.732;10.550;2022-12-19T17:01:07;102799.13;;;7.88;100.00
32237;BME280;18726;44.732;10.550;2022-12-19T17:04:18;102798.41;;;8.32;100.00
32237;BME280;18726;44.732;10.550;2022-12-19T17:07:22;102794.44;;;8.14;100.00
32237;BME280;18726;44.732;10.550;2022-12-19T17:10:30;102783.91;;;8.07;100.00
32237;BME280;18726;44.732;10.550;2022-12-19T17:13:34;102792.16;;;7.77;100.00
32237;BME280;18726;44.732;10.550;2022-12-19T17:16:38;102788.03;;;7.90;100.00
32237;BME280;18726;44.732;10.550;2022-12-19T17:19:43;102796.47;;;7.78;100.00
32237;BME280;18726;44.732;10.550;2022-12-19T17:22:48;102792.50;;;8.25;100.00
32237;BME280;18726;44.732;10.550;2022-12-19T17:25:52;102791.50;;;8.60;100.00
32237;BME280;18726;44.732;10.550;2022-12-19T17:28:57;102789.25;;;8.72;100.00
32237;BME280;18726;44.732;10.550;2022-12-19T17:32:01;102796.28;;;8.73;100.00
32237;BME280;18726;44.732;10.550;2022-12-19T17:35:06;102796.38;;;8.97;100.00
32237;BME280;18726;44.732;10.550;2022-12-19T17:38:14;102792.41;;;9.18;100.00
32237;BME280;18726;44.732;10.550;2022-12-19T17:41:18;102797.72;;;9.28;100.00
32237;BME280;18726;44.732;10.550;2022-12-19T17:44:22;102795.78;;;9.34;100.00
32237;BME280;18726;44.732;10.550;2022-12-19T17:47:27;102807.16;;;9.36;100.00
32237;BME280;18726;44.732;10.550;2022-12-19T17:50:39;102805.94;;;9.23;100.00
32237;BME280;18726;44.732;10.550;2022-12-19T17:53:44;102798.72;;;9.08;100.00
32237;BME280;18726;44.732;10.550;2022-12-19T17:56:49;102804.44;;;9.07;100.00
32237;BME280;18726;44.732;10.550;2022-12-19T17:59:54;102799.69;;;8.94;100.00
32237;BME280;18726;44.732;10.550;2022-12-19T18:03:01;102804.78;;;8.95;100.00